< < Back
Terminal Aerodrome Forecast


Current Version              Previous Versions:   1  2  3  4  5  6  7  8  9  

Terminal Aerodrome Forecast

715
FTUS44 KMOB 281518 CCA
TAFMOB
TAF COR
KMOB 281518Z 2815/2912 20008KT P6SM -RA VCTS FEW013 SCT027CB BKN110
      TEMPO 2815/2818 VRB35KT 2SM TSRA BKN007 OVC015CB
     FM281800 19013KT P6SM VCTS SCT025CB BKN040
      TEMPO 2819/2822 P6SM -TSRA BKN025CB
     FM290000 18004KT P6SM SCT250
     FM290600 19002KT P6SM OVC007
     FM290900 00000KT 4SM BR OVC004=



Latest METAR

085
SAUS80 KWBC 291000 CCA
MTRMOB
METAR KMOB 290956Z AUTO 11004KT 10SM FEW070 19/19 A2997 RMK AO2 SLP145
T01890189


USA.gov is the U.S. government's official web portal to all federal, state and local government web resources and services.